Time;durP1;ratioP1;P1;durP2;ratioP2;P2;SDS_P1;SDS_P2;PMS_P1;PMS_P2;Temp;Humidity;BMP_temperature;BMP_pressure;BME280_temperature;BME280_humidity;BME280_pressure;Samples;Min_cycle;Max_cycle;Signal;HPM_P1;HPM_P2
2022/06/15 00:00:58;;;;;;;11.57;2.85;;;;;;;22.29;62.77;99993.13;5060885;28;20063;-73
2022/06/15 00:03:26;;;;;;;4.63;2.70;;;;;;;22.29;62.24;99993.94;5057360;28;20020;-73
2022/06/15 00:05:52;;;;;;;4.50;2.78;;;;;;;22.16;62.12;99961.78;5056353;28;20210;-73
2022/06/15 00:08:19;;;;;;;5.90;2.60;;;;;;;22.19;62.46;99993.69;5059082;28;20029;-73
2022/06/15 00:10:45;;;;;;;8.18;3.42;;;;;;;22.20;62.30;99987.25;5058383;28;20306;-73
2022/06/15 00:13:10;;;;;;;5.63;2.75;;;;;;;22.20;61.98;100002.59;5043798;28;20079;-73
2022/06/15 00:15:36;;;;;;;10.63;3.15;;;;;;;22.39;61.49;100003.34;5059748;28;20325;-73
2022/06/15 00:18:01;;;;;;;6.57;2.80;;;;;;;22.40;60.94;99999.59;5061281;28;20063;-72
2022/06/15 00:20:27;;;;;;;9.02;2.70;;;;;;;22.34;61.00;99998.63;5061073;28;20522;-73
2022/06/15 00:22:52;;;;;;;6.28;3.10;;;;;;;22.28;61.01;99996.88;5059542;28;20032;-74
2022/06/15 00:25:18;;;;;;;6.93;2.97;;;;;;;22.32;61.05;99989.13;5056900;28;20384;-73
2022/06/15 00:27:43;;;;;;;5.88;2.85;;;;;;;22.29;60.93;99996.63;5059932;28;20256;-73
2022/06/15 00:30:11;;;;;;;3.50;2.55;;;;;;;22.20;60.70;99995.34;5061946;28;20035;-72
2022/06/15 00:32:36;;;;;;;4.78;2.83;;;;;;;22.27;60.80;100001.44;5073591;28;20024;-73
2022/06/15 00:35:02;;;;;;;9.30;2.97;;;;;;;22.24;60.77;99999.22;5081335;28;20039;-73
2022/06/15 00:37:27;;;;;;;5.25;2.70;;;;;;;22.28;60.66;99997.69;5048567;28;20039;-73
2022/06/15 00:39:53;;;;;;;6.93;2.90;;;;;;;22.24;60.47;99993.81;5060435;28;20036;-73
2022/06/15 00:42:20;;;;;;;4.82;2.72;;;;;;;22.43;60.19;99991.03;5042028;28;20027;-73
2022/06/15 00:44:45;;;;;;;10.55;3.33;;;;;;;22.19;60.03;99974.00;5057865;28;20029;-73
2022/06/15 00:47:21;;;;;;;4.38;3.15;;;;;;;22.14;60.62;99995.44;5059485;28;20051;-73
2022/06/15 00:49:51;;;;;;;9.05;3.10;;;;;;;22.14;60.49;99996.25;5060546;28;20041;-73
2022/06/15 00:52:32;;;;;;;5.28;3.00;;;;;;;22.08;60.74;99997.19;5058900;28;20810;-73
2022/06/15 00:55:00;;;;;;;5.88;2.88;;;;;;;21.96;60.62;99983.63;5057935;28;20135;-73
2022/06/15 00:57:28;;;;;;;6.65;2.95;;;;;;;21.91;60.48;100002.38;5061127;28;20222;-73
2022/06/15 00:59:59;;;;;;;4.40;2.70;;;;;;;21.78;61.11;100002.53;5060742;28;20407;-73
2022/06/15 01:02:26;;;;;;;5.07;3.17;;;;;;;21.75;61.04;99996.78;5058412;28;20029;-73
2022/06/15 01:04:58;;;;;;;4.40;2.88;;;;;;;21.77;61.23;99998.19;5058830;28;20044;-73
2022/06/15 01:08:04;;;;;;;6.47;3.13;;;;;;;21.67;61.33;99995.22;5057735;28;20262;-72
2022/06/15 01:10:35;;;;;;;8.00;3.35;;;;;;;21.70;61.23;99988.56;5016498;28;20156;-73
2022/06/15 01:13:17;;;;;;;5.05;3.00;;;;;;;21.54;61.15;99992.72;5060143;28;20037;-73
2022/06/15 01:15:48;;;;;;;10.98;3.30;;;;;;;21.48;61.20;99983.66;5059285;28;20055;-72
2022/06/15 01:18:43;;;;;;;7.55;3.67;;;;;;;21.50;61.44;99991.53;5058493;28;20342;-73
2022/06/15 01:21:11;;;;;;;;;;;;;;;21.45;61.40;99986.00;5059733;28;20035;-73
2022/06/15 01:24:08;;;;;;;7.97;3.20;;;;;;;21.38;61.62;99983.38;5060698;28;19995;-72
2022/06/15 01:26:39;;;;;;;5.93;3.15;;;;;;;21.35;61.57;99992.75;5012780;28;20056;-73
2022/06/15 01:29:37;;;;;;;8.73;3.53;;;;;;;21.39;61.61;99993.13;5058457;28;20045;-73
2022/06/15 01:32:07;;;;;;;9.43;3.28;;;;;;;21.33;61.26;99989.44;5055660;28;20060;-72
2022/06/15 01:34:45;;;;;;;7.90;3.10;;;;;;;21.20;60.37;99978.81;5058442;28;20370;-72
2022/06/15 01:37:13;;;;;;;10.02;3.22;;;;;;;21.21;60.67;99993.09;5059402;28;20041;-72
2022/06/15 01:39:44;;;;;;;9.63;2.78;;;;;;;21.32;60.04;99987.81;5061835;28;20044;-73
2022/06/15 01:42:16;;;;;;;3.30;2.63;;;;;;;20.64;59.59;99882.13;5044696;28;20063;-73
2022/06/15 01:44:46;;;;;;;8.40;3.13;;;;;;;21.40;59.33;100002.00;5027159;28;20236;-72
2022/06/15 01:47:18;;;;;;;9.55;3.00;;;;;;;21.45;59.33;99988.69;5059303;28;20036;-73
2022/06/15 01:50:24;;;;;;;8.88;3.10;;;;;;;21.62;58.64;100000.47;5045660;28;20412;-72
2022/06/15 01:53:01;;;;;;;4.22;2.80;;;;;;;21.47;58.53;99998.19;5053362;28;20045;-73
2022/06/15 01:56:02;;;;;;;9.05;2.90;;;;;;;21.39;58.61;100003.88;5060056;28;20029;-72
2022/06/15 01:58:30;;;;;;;11.93;2.88;;;;;;;21.33;58.19;99994.00;5061591;28;20291;-72
2022/06/15 02:01:45;;;;;;;4.93;2.55;;;;;;;21.34;57.79;99999.19;5064776;28;20096;-73
2022/06/15 02:04:24;;;;;;;5.00;2.73;;;;;;;21.21;58.27;100003.88;5058772;28;20322;-73
2022/06/15 02:07:04;;;;;;;6.78;2.83;;;;;;;21.19;58.04;100005.97;5063036;28;20447;-72
2022/06/15 02:09:34;;;;;;;5.03;2.53;;;;;;;21.11;58.06;100007.09;5059930;28;20036;-73
2022/06/15 02:12:03;;;;;;;5.80;2.70;;;;;;;21.01;57.82;99979.88;5061415;28;20198;-73
2022/06/15 02:14:59;;;;;;;6.72;2.53;;;;;;;21.23;57.58;100013.41;5061346;28;20032;-73
2022/06/15 02:17:33;;;;;;;7.65;2.22;;;;;;;21.18;57.59;100017.78;5056063;28;20041;-72
2022/06/15 02:20:20;;;;;;;6.35;2.08;;;;;;;21.20;57.17;100018.38;5062111;28;20038;-72
2022/06/15 02:22:49;;;;;;;5.15;2.40;;;;;;;21.29;56.89;100025.16;5063475;28;20036;-73
2022/06/15 02:25:18;;;;;;;6.22;2.65;;;;;;;21.21;57.47;100033.50;5063473;28;20059;-73
2022/06/15 02:27:44;;;;;;;6.82;2.83;;;;;;;21.13;57.59;100031.91;5058598;28;20339;-72
2022/06/15 02:30:16;;;;;;;5.45;2.58;;;;;;;21.21;57.77;100036.19;5062677;28;20029;-73
2022/06/15 02:32:43;;;;;;;5.95;3.28;;;;;;;21.25;57.50;100035.53;5062956;28;20029;-72
2022/06/15 02:35:09;;;;;;;8.65;2.92;;;;;;;21.43;57.06;100037.41;5061272;28;20059;-72
2022/06/15 02:37:35;;;;;;;8.55;3.00;;;;;;;21.20;57.34;100027.28;5061482;28;20033;-72
2022/06/15 02:40:01;;;;;;;4.78;3.05;;;;;;;21.23;57.36;100031.44;5062368;28;20064;-73
2022/06/15 02:42:31;;;;;;;7.07;3.40;;;;;;;21.28;57.32;100045.88;5063241;28;20033;-72
2022/06/15 02:45:01;;;;;;;8.82;2.80;;;;;;;21.12;57.63;100048.28;5063572;28;20035;-72
2022/06/15 02:47:30;;;;;;;4.60;2.90;;;;;;;21.17;57.69;100051.97;5063104;28;20029;-72
2022/06/15 02:49:57;;;;;;;5.85;2.90;;;;;;;21.11;57.51;100047.47;5058955;28;20041;-73
2022/06/15 02:52:28;;;;;;;7.55;3.10;;;;;;;21.25;56.93;100048.19;5062725;28;20127;-72
2022/06/15 02:54:55;;;;;;;12.48;2.70;;;;;;;21.33;57.13;100055.97;5064401;28;20040;-73
2022/06/15 02:57:22;;;;;;;7.97;2.67;;;;;;;21.38;56.92;100063.38;5062697;28;20028;-73
2022/06/15 02:59:48;;;;;;;5.78;3.13;;;;;;;21.26;56.80;100060.59;5057839;28;20116;-73
2022/06/15 03:02:15;;;;;;;11.35;2.90;;;;;;;21.19;56.83;100070.59;5061418;28;20029;-72
2022/06/15 03:04:42;;;;;;;7.47;3.28;;;;;;;21.07;57.01;100065.13;5060239;28;20032;-73
2022/06/15 03:07:07;;;;;;;7.53;2.90;;;;;;;21.06;56.66;100063.47;5060028;28;20035;-73
2022/06/15 03:09:33;;;;;;;11.55;3.17;;;;;;;21.18;56.20;100068.94;5060803;28;20104;-72
2022/06/15 03:11:58;;;;;;;4.88;2.83;;;;;;;21.16;56.13;100071.88;5068744;28;20025;-73
2022/06/15 03:14:24;;;;;;;9.10;3.28;;;;;;;21.14;56.33;100073.13;5082972;28;20055;-72
2022/06/15 03:16:49;;;;;;;10.55;2.90;;;;;;;21.17;56.69;100070.81;5072644;28;20365;-73
2022/06/15 03:19:15;;;;;;;9.40;3.10;;;;;;;21.20;56.77;100067.69;5060018;28;20029;-72
2022/06/15 03:21:41;;;;;;;4.55;2.80;;;;;;;21.36;56.42;100074.38;5061541;28;20243;-72
2022/06/15 03:24:07;;;;;;;3.45;2.60;;;;;;;21.23;56.33;100031.44;5061728;28;20040;-72
2022/06/15 03:26:33;;;;;;;6.20;2.67;;;;;;;21.54;56.53;100076.25;5057201;28;20040;-72
2022/06/15 03:29:17;;;;;;;3.95;2.45;;;;;;;21.54;56.16;100084.31;5214617;22;20050;-66
2022/06/15 03:31:42;;;;;;;7.40;3.28;;;;;;;21.50;56.22;100080.44;5043706;28;20045;-66
2022/06/15 03:34:08;;;;;;;5.75;2.80;;;;;;;21.61;56.11;100082.38;5043980;28;20325;-67
2022/06/15 03:36:34;;;;;;;10.23;2.80;;;;;;;21.70;55.86;100072.94;5045244;28;20314;-66
2022/06/15 03:38:59;;;;;;;7.90;2.60;;;;;;;21.69;55.58;100087.47;5043895;28;20017;-66
2022/06/15 03:41:25;;;;;;;7.88;2.70;;;;;;;21.69;54.70;100084.75;5044871;28;20021;-66
2022/06/15 03:43:50;;;;;;;10.90;2.65;;;;;;;21.68;55.05;100081.25;5043806;28;20219;-66
2022/06/15 03:46:16;;;;;;;7.45;2.58;;;;;;;21.85;54.24;100083.34;5043153;28;20048;-66
2022/06/15 03:48:41;;;;;;;6.30;2.45;;;;;;;21.76;54.04;100077.41;5045623;28;20033;-66
2022/06/15 03:51:07;;;;;;;7.50;2.60;;;;;;;21.80;54.21;100080.47;5044317;28;20217;-66
2022/06/15 03:53:32;;;;;;;4.20;2.65;;;;;;;21.89;53.79;100076.44;5043787;28;20033;-66
2022/06/15 03:55:58;;;;;;;7.82;2.28;;;;;;;21.92;53.52;100084.09;5043430;28;20357;-66
2022/06/15 03:58:23;;;;;;;8.05;2.45;;;;;;;21.88;53.10;100080.19;5043222;28;20083;-67
2022/06/15 04:00:50;;;;;;;4.38;2.50;;;;;;;21.88;53.27;100085.59;5044570;28;20047;-66
2022/06/15 04:03:16;;;;;;;5.78;2.60;;;;;;;22.13;52.31;100091.72;5043343;28;20052;-66
2022/06/15 04:05:50;;;;;;;4.95;2.70;;;;;;;22.09;52.37;100095.09;5043314;28;20327;-66
2022/06/15 04:08:34;;;;;;;5.85;3.00;;;;;;;22.21;52.36;100099.47;5048621;28;20042;-67
2022/06/15 04:11:08;;;;;;;6.88;2.85;;;;;;;22.35;52.40;100092.00;5048639;28;20211;-67
2022/06/15 04:13:35;;;;;;;7.32;2.50;;;;;;;22.35;51.95;100086.63;5043512;28;20052;-66
2022/06/15 04:16:04;;;;;;;5.32;2.55;;;;;;;22.69;51.45;100089.63;5043360;28;20108;-67
2022/06/15 04:18:29;;;;;;;14.40;3.13;;;;;;;22.91;49.52;100090.75;5041725;28;20029;-66
2022/06/15 04:20:55;;;;;;;4.28;2.58;;;;;;;23.20;49.24;100100.59;5041745;28;20132;-67
2022/06/15 04:23:21;;;;;;;5.57;2.70;;;;;;;23.27;49.06;100099.66;5043168;28;20226;-66
2022/06/15 04:25:58;;;;;;;9.85;2.67;;;;;;;23.46;48.75;100098.47;5043110;28;20052;-67
2022/06/15 04:28:25;;;;;;;7.47;2.75;;;;;;;23.41;49.01;100101.06;5043041;28;20274;-67
2022/06/15 04:30:51;;;;;;;6.90;2.90;;;;;;;23.71;48.89;100099.03;5042851;28;20095;-66
2022/06/15 04:33:16;;;;;;;8.02;2.70;;;;;;;24.03;47.57;100107.53;5042975;28;20083;-67
2022/06/15 04:35:43;;;;;;;11.00;2.40;;;;;;;24.33;47.15;100109.19;5042239;28;20025;-67
2022/06/15 04:38:10;;;;;;;10.38;2.70;;;;;;;24.26;46.63;100109.31;5043518;28;20048;-67
2022/06/15 04:40:37;;;;;;;5.05;2.58;;;;;;;24.48;46.43;100113.00;5044929;28;20037;-67
2022/06/15 04:43:07;;;;;;;8.23;2.47;;;;;;;24.68;44.53;100100.88;5043690;28;20338;-67
2022/06/15 04:45:33;;;;;;;8.68;2.58;;;;;;;24.53;44.23;100098.72;5046127;28;20225;-67
2022/06/15 04:47:58;;;;;;;4.40;2.30;;;;;;;24.64;44.70;100086.19;5042738;28;20080;-67
2022/06/15 04:50:24;;;;;;;6.35;2.03;;;;;;;24.76;43.51;100098.56;5042447;28;20025;-67
2022/06/15 04:52:50;;;;;;;7.10;2.20;;;;;;;25.14;42.23;100100.56;5041207;28;20140;-67
2022/06/15 04:55:19;;;;;;;5.38;2.10;;;;;;;25.44;41.83;100107.47;5040786;28;20334;-67
2022/06/15 04:57:45;;;;;;;7.55;2.38;;;;;;;25.55;40.30;100103.84;5043513;28;20041;-67
2022/06/15 05:00:15;;;;;;;5.85;2.22;;;;;;;25.73;39.67;100106.25;5043365;28;20040;-67
2022/06/15 05:02:41;;;;;;;5.03;2.33;;;;;;;25.96;40.04;100098.94;5044311;28;20052;-67
2022/06/15 05:05:07;;;;;;;3.42;2.30;;;;;;;25.91;39.39;100102.41;5044800;28;20111;-67
2022/06/15 05:07:32;;;;;;;7.22;2.38;;;;;;;26.20;39.52;100105.72;5056678;28;20057;-67
2022/06/15 05:09:58;;;;;;;8.85;2.20;;;;;;;26.38;38.87;100104.59;5042634;28;20031;-67
2022/06/15 05:12:23;;;;;;;6.63;2.50;;;;;;;26.24;38.57;100108.75;5041169;28;20100;-67
2022/06/15 05:14:49;;;;;;;5.45;2.08;;;;;;;26.51;37.97;100093.31;5040746;28;20218;-67
2022/06/15 05:17:17;;;;;;;9.25;2.60;;;;;;;26.68;38.44;100109.47;5041566;28;20037;-67
2022/06/15 05:19:42;;;;;;;9.40;2.55;;;;;;;26.89;37.42;100107.72;5043166;28;20053;-67
2022/06/15 05:22:07;;;;;;;5.45;2.50;;;;;;;27.07;36.94;100110.09;5042768;28;20222;-67
2022/06/15 05:24:33;;;;;;;7.35;2.92;;;;;;;27.19;37.26;100108.00;5041649;28;20033;-67
2022/06/15 05:26:59;;;;;;;8.18;2.28;;;;;;;27.16;36.16;100107.72;5043454;28;20036;-66
2022/06/15 05:29:25;;;;;;;4.03;2.13;;;;;;;27.12;36.67;100104.69;5040559;28;20033;-67
2022/06/15 05:31:51;;;;;;;7.38;2.55;;;;;;;27.39;35.56;100098.31;5024248;28;20104;-67
2022/06/15 05:34:17;;;;;;;5.93;2.22;;;;;;;27.81;35.57;100109.97;5052397;28;20041;-67
2022/06/15 05:36:42;;;;;;;5.90;2.10;;;;;;;28.22;34.48;100107.38;5054157;28;20039;-67
2022/06/15 05:39:09;;;;;;;5.15;2.15;;;;;;;28.21;34.26;100120.19;5053530;28;20333;-67
2022/06/15 05:41:35;;;;;;;4.68;1.85;;;;;;;28.18;33.42;100118.00;5053792;28;20305;-67
2022/06/15 05:44:01;;;;;;;5.75;1.90;;;;;;;28.04;32.76;100116.84;5055272;28;20029;-67
2022/06/15 05:46:33;;;;;;;3.35;1.70;;;;;;;28.26;31.67;100119.41;5053617;28;20021;-67
2022/06/15 05:49:00;;;;;;;6.38;1.92;;;;;;;28.41;31.70;100121.34;5055098;28;20160;-67
2022/06/15 05:51:27;;;;;;;4.70;1.75;;;;;;;28.71;31.97;100124.09;5050967;28;20029;-67
2022/06/15 05:53:53;;;;;;;5.60;1.90;;;;;;;28.72;31.87;100114.00;5055406;28;20041;-67
2022/06/15 05:56:19;;;;;;;5.93;1.80;;;;;;;28.49;31.74;100108.00;5053010;28;20033;-68
2022/06/15 05:58:45;;;;;;;9.57;2.10;;;;;;;28.73;31.30;100118.38;5053084;28;20067;-67
2022/06/15 06:01:16;;;;;;;3.22;2.00;;;;;;;28.71;31.58;100118.63;5052833;28;20056;-67
2022/06/15 06:03:42;;;;;;;6.75;2.03;;;;;;;28.70;31.49;100110.72;5057344;28;20025;-68
2022/06/15 06:06:09;;;;;;;7.07;2.30;;;;;;;29.03;31.26;100115.66;5048927;28;20036;-67
2022/06/15 06:08:35;;;;;;;5.78;1.92;;;;;;;28.83;32.10;100121.09;5060639;28;20036;-67
2022/06/15 06:11:00;;;;;;;7.35;2.00;;;;;;;28.81;32.16;100126.00;5060132;28;20036;-67
2022/06/15 06:13:25;;;;;;;12.43;2.03;;;;;;;28.91;31.77;100126.03;5060426;28;20047;-67
2022/06/15 06:15:52;;;;;;;8.23;2.20;;;;;;;28.61;32.51;100126.81;5060847;28;20059;-67
2022/06/15 06:18:17;;;;;;;7.65;2.05;;;;;;;28.21;32.64;100128.34;5060298;28;20045;-67
2022/06/15 06:20:43;;;;;;;4.45;1.77;;;;;;;28.30;32.32;100128.69;5060194;28;20063;-67
2022/06/15 06:23:08;;;;;;;5.22;3.20;;;;;;;28.14;33.02;100132.41;5047621;28;20025;-67
2022/06/15 06:25:33;;;;;;;3.70;1.90;;;;;;;27.81;33.62;100130.91;5064187;28;20027;-67
2022/06/15 06:28:00;;;;;;;7.38;2.38;;;;;;;27.85;33.84;100127.41;5063848;28;20051;-67
2022/06/15 06:30:25;;;;;;;5.85;2.40;;;;;;;28.44;32.81;100116.16;5064001;28;20273;-67
2022/06/15 06:32:51;;;;;;;10.50;2.58;;;;;;;28.34;33.14;100127.03;5063881;28;20112;-67
2022/06/15 06:35:17;;;;;;;7.60;2.55;;;;;;;28.37;33.73;100126.50;5063994;28;20036;-67
2022/06/15 06:37:44;;;;;;;18.27;2.85;;;;;;;28.97;32.61;100132.28;5063803;28;20071;-67
2022/06/15 06:40:14;;;;;;;29.95;4.43;;;;;;;29.29;31.79;100132.00;5063745;28;20032;-67
2022/06/15 06:42:39;;;;;;;11.00;2.90;;;;;;;29.45;32.05;100122.72;5063763;28;20032;-67
2022/06/15 06:45:05;;;;;;;5.30;1.98;;;;;;;29.12;31.56;100116.72;5064052;28;20301;-68
2022/06/15 06:47:30;;;;;;;6.90;2.30;;;;;;;29.02;32.78;100114.00;5063451;28;20051;-67
2022/06/15 06:49:56;;;;;;;5.35;1.88;;;;;;;29.63;32.34;100133.00;5063773;28;20203;-67
2022/06/15 06:52:21;;;;;;;8.10;3.45;;;;;;;29.33;32.13;100131.16;5063619;28;20342;-67
2022/06/15 06:54:47;;;;;;;6.90;2.63;;;;;;;29.31;31.25;100136.06;5063662;28;20432;-67
2022/06/15 06:57:12;;;;;;;8.95;1.90;;;;;;;29.37;31.43;100131.44;5063188;28;20088;-67
2022/06/15 06:59:38;;;;;;;5.88;2.00;;;;;;;29.24;32.28;100114.53;5063492;28;20021;-67
2022/06/15 07:02:04;;;;;;;11.80;1.90;;;;;;;29.90;30.90;100126.34;5054762;28;20037;-67
2022/06/15 07:04:30;;;;;;;5.30;1.77;;;;;;;30.41;29.88;100125.03;5054458;28;20093;-67
2022/06/15 07:06:57;;;;;;;5.20;2.30;;;;;;;29.97;30.93;100121.41;5052849;28;20501;-67
2022/06/15 07:09:23;;;;;;;6.95;2.05;;;;;;;30.03;30.79;100123.84;5053657;28;20099;-67
2022/06/15 07:11:48;;;;;;;6.43;3.25;;;;;;;30.39;31.20;100127.22;5052210;28;20216;-67
2022/06/15 07:14:14;;;;;;;6.50;2.22;;;;;;;30.77;30.19;100117.38;5052998;28;20035;-67
2022/06/15 07:16:41;;;;;;;4.93;2.70;;;;;;;30.05;30.16;100118.94;5053025;28;20095;-67
2022/06/15 07:19:06;;;;;;;4.20;2.20;;;;;;;30.41;30.04;100119.56;5050897;28;20033;-67
2022/06/15 07:21:32;;;;;;;3.35;1.65;;;;;;;30.33;29.21;100087.38;5055947;28;20075;-68
2022/06/15 07:23:58;;;;;;;4.90;1.88;;;;;;;30.88;29.13;100126.31;5054289;28;20320;-67
2022/06/15 07:26:39;;;;;;;4.82;2.47;;;;;;;30.91;28.89;100119.47;5055660;28;20040;-67
2022/06/15 07:29:05;;;;;;;7.78;2.55;;;;;;;30.82;30.21;100113.78;5052049;28;20040;-68
2022/06/15 07:31:34;;;;;;;6.20;2.13;;;;;;;30.47;30.27;100121.16;5053817;28;20247;-67
2022/06/15 07:34:00;;;;;;;7.28;2.30;;;;;;;30.48;30.43;100105.56;5050923;28;20222;-67
2022/06/15 07:36:26;;;;;;;5.85;2.13;;;;;;;31.17;29.94;100122.78;5053261;28;20033;-67
2022/06/15 07:38:54;;;;;;;4.97;2.20;;;;;;;31.20;29.20;100114.81;5051877;28;20047;-67
2022/06/15 07:41:21;;;;;;;7.80;3.15;;;;;;;30.80;28.93;100118.72;5055442;28;20025;-67
2022/06/15 07:43:47;;;;;;;5.22;2.70;;;;;;;30.63;30.19;100116.41;5054367;28;20045;-67
2022/06/15 07:46:12;;;;;;;5.18;2.10;;;;;;;30.67;30.67;100125.69;5052046;28;20028;-67
2022/06/15 07:51:29;;;;;;;5.57;1.70;;;;;;;31.47;29.81;100114.28;5054992;28;20368;-67
2022/06/15 07:53:57;;;;;;;8.90;2.15;;;;;;;31.68;30.17;100115.66;5056722;28;20083;-67
2022/06/15 07:56:22;;;;;;;5.00;1.75;;;;;;;32.10;29.44;100107.75;5051111;28;20037;-67
2022/06/15 07:58:48;;;;;;;6.30;1.80;;;;;;;32.07;29.63;100114.63;5055633;28;20154;-68
2022/06/15 08:01:13;;;;;;;4.97;2.15;;;;;;;32.52;28.64;100110.47;5053309;28;20390;-68
2022/06/15 08:03:39;;;;;;;7.07;2.05;;;;;;;32.70;28.37;100112.34;5055690;28;20037;-67
2022/06/15 08:06:05;;;;;;;6.43;2.03;;;;;;;32.69;28.04;100101.69;5052250;28;20349;-68
2022/06/15 08:08:31;;;;;;;7.40;2.17;;;;;;;32.53;29.83;100101.13;5054434;28;20044;-68
2022/06/15 08:10:57;;;;;;;6.75;2.10;;;;;;;31.79;31.25;100104.63;5054393;28;20330;-67
2022/06/15 08:13:22;;;;;;;3.88;1.75;;;;;;;30.99;32.44;100113.38;5053581;28;20069;-68
2022/06/15 08:15:50;;;;;;;3.00;2.40;;;;;;;31.38;32.04;100105.09;5044500;28;20234;-68
2022/06/15 08:18:20;;;;;;;7.30;2.20;;;;;;;31.79;32.02;100104.63;5054001;28;20033;-67
2022/06/15 08:20:56;;;;;;;3.03;2.13;;;;;;;31.18;33.07;100094.34;5054041;28;20033;-68
2022/06/15 08:23:25;;;;;;;8.07;2.25;;;;;;;31.48;33.55;100098.69;5051472;28;20091;-67
2022/06/15 08:25:56;;;;;;;4.95;2.60;;;;;;;31.86;32.49;100097.66;5052951;28;20020;-67
2022/06/15 08:28:25;;;;;;;4.97;2.65;;;;;;;32.25;32.33;100102.09;5051835;28;20036;-68
2022/06/15 08:30:52;;;;;;;5.97;1.92;;;;;;;32.36;30.30;100100.84;5051927;28;20096;-67
2022/06/15 08:33:17;;;;;;;6.45;1.95;;;;;;;32.39;29.65;100100.25;5054580;28;20036;-67
2022/06/15 08:35:43;;;;;;;5.07;2.30;;;;;;;31.67;31.65;100103.09;5055744;28;20319;-67
2022/06/15 08:38:12;;;;;;;7.22;2.33;;;;;;;32.11;32.38;100099.25;5050628;28;20044;-67
2022/06/15 08:41:03;;;;;;;3.03;2.10;;;;;;;32.41;30.71;100099.94;5055916;28;20092;-68
2022/06/15 08:43:40;;;;;;;8.27;2.55;;;;;;;32.11;32.52;100099.25;5050931;28;20229;-67
2022/06/15 08:46:18;;;;;;;4.18;2.15;;;;;;;31.64;32.01;100098.19;5052336;28;20218;-68
2022/06/15 08:49:20;;;;;;;7.82;2.50;;;;;;;32.17;33.33;100105.47;5051559;28;20035;-67
2022/06/15 08:51:54;;;;;;;5.20;2.10;;;;;;;31.84;33.24;100091.69;5052645;28;20099;-67
2022/06/15 08:54:26;;;;;;;4.63;2.40;;;;;;;31.19;33.64;100099.50;5052385;28;20326;-67
2022/06/15 08:57:03;;;;;;;11.18;2.92;;;;;;;31.32;33.30;100093.38;5051030;28;20028;-67
2022/06/15 08:59:46;;;;;;;6.28;3.08;;;;;;;31.42;34.22;100101.47;5052757;28;20051;-67
2022/06/15 09:02:49;;;;;;;6.18;2.20;;;;;;;31.13;32.70;100089.69;5053943;28;20035;-67
2022/06/15 09:05:32;;;;;;;3.97;2.28;;;;;;;31.37;34.09;100097.97;5050333;28;20334;-67
2022/06/15 09:08:05;;;;;;;6.03;2.33;;;;;;;32.08;31.82;100094.34;5055064;28;20045;-67
2022/06/15 09:10:46;;;;;;;8.98;2.50;;;;;;;32.00;31.47;100100.50;5053060;28;20104;-68
2022/06/15 09:13:34;;;;;;;3.30;2.20;;;;;;;32.52;30.12;100095.94;5049328;28;20036;-66
2022/06/15 09:16:14;;;;;;;5.28;2.28;;;;;;;32.92;29.10;100097.19;5008363;28;20048;-67
2022/06/15 09:18:46;;;;;;;6.15;1.92;;;;;;;32.54;32.21;100089.03;5053842;28;20028;-67
2022/06/15 09:21:21;;;;;;;2.17;1.98;;;;;;;32.78;30.42;100093.63;5051294;28;20330;-68
2022/06/15 09:23:52;;;;;;;4.47;2.22;;;;;;;33.08;31.64;100097.75;5052313;28;20049;-66
2022/06/15 09:26:42;;;;;;;3.83;1.90;;;;;;;33.22;31.17;100093.06;5053482;28;20315;-66
2022/06/15 09:29:17;;;;;;;7.97;2.70;;;;;;;33.34;29.44;100093.44;5055098;28;20040;-65
2022/06/15 09:31:49;;;;;;;3.55;2.35;;;;;;;33.33;29.95;100091.81;5012785;28;20275;-65
2022/06/15 09:34:21;;;;;;;3.33;2.60;;;;;;;32.30;32.12;100096.56;5012222;28;20037;-68
2022/06/15 09:36:53;;;;;;;2.92;1.80;;;;;;;32.12;32.01;100091.84;5013947;28;20029;-67
2022/06/15 09:39:19;;;;;;;8.07;2.70;;;;;;;31.93;33.21;100089.91;5013213;28;20056;-68
2022/06/15 09:41:57;;;;;;;5.03;2.10;;;;;;;31.99;33.10;100090.66;5014849;28;20433;-67
2022/06/15 09:44:32;;;;;;;5.90;2.35;;;;;;;32.18;31.17;100088.72;5010114;28;20046;-68
2022/06/15 09:47:23;;;;;;;5.38;2.25;;;;;;;31.84;32.32;100086.19;5012902;28;20207;-68
2022/06/15 09:50:11;;;;;;;5.70;2.17;;;;;;;31.66;33.09;100086.97;4994503;28;20050;-67
2022/06/15 09:53:15;;;;;;;4.45;2.95;;;;;;;31.02;35.84;100080.78;5015208;28;20038;-67
2022/06/15 09:55:45;;;;;;;3.22;2.05;;;;;;;31.21;33.10;100080.94;5010622;28;20108;-67
2022/06/15 09:58:17;;;;;;;4.85;2.33;;;;;;;30.89;33.76;100078.72;5011802;28;20045;-67
2022/06/15 10:00:45;;;;;;;4.45;2.22;;;;;;;30.80;34.92;100081.28;5017144;28;20235;-67
2022/06/15 10:03:36;;;;;;;6.45;2.20;;;;;;;31.04;35.10;100073.09;5017525;28;20042;-68
2022/06/15 10:06:31;;;;;;;4.45;2.25;;;;;;;30.99;35.21;100075.06;5020119;28;20045;-67
2022/06/15 10:08:59;;;;;;;9.70;3.20;;;;;;;30.62;34.89;100078.44;5012475;28;20032;-67
2022/06/15 10:11:41;;;;;;;4.88;2.33;;;;;;;30.26;35.74;100075.13;5018354;28;20061;-67
2022/06/15 10:14:18;;;;;;;10.38;3.38;;;;;;;30.39;34.93;100079.97;5017188;28;20054;-67
2022/06/15 10:16:54;;;;;;;11.85;4.20;;;;;;;30.13;33.98;100079.28;5017748;28;20227;-67
2022/06/15 10:19:20;;;;;;;7.30;3.30;;;;;;;30.40;34.52;100076.94;5019154;28;20037;-67
2022/06/15 10:21:52;;;;;;;8.30;2.47;;;;;;;30.41;32.93;100067.63;5015488;28;20105;-67
2022/06/15 10:24:34;;;;;;;3.53;2.10;;;;;;;30.46;34.18;100075.78;5017498;28;20069;-67
2022/06/15 10:27:28;;;;;;;4.35;2.38;;;;;;;30.59;31.79;100079.81;5014769;28;20029;-66
2022/06/15 10:30:11;;;;;;;5.18;2.25;;;;;;;30.44;33.91;100064.34;5017688;28;20036;-67
2022/06/15 10:32:57;;;;;;;7.07;2.15;;;;;;;30.32;34.32;100074.81;5053343;28;20044;-67
2022/06/15 10:35:23;;;;;;;6.32;3.33;;;;;;;30.39;34.30;100074.50;5052551;28;20036;-67
2022/06/15 10:37:52;;;;;;;5.38;2.00;;;;;;;30.54;35.55;100066.16;5058466;28;20035;-67
2022/06/15 10:40:18;;;;;;;8.38;6.28;;;;;;;30.15;34.94;100069.72;5064224;28;20044;-67
2022/06/15 10:43:06;;;;;;;4.70;2.30;;;;;;;30.25;34.85;100062.56;5063828;28;20064;-67
2022/06/15 10:45:42;;;;;;;4.28;2.35;;;;;;;30.47;33.57;100054.75;5062339;28;20330;-67
2022/06/15 10:48:17;;;;;;;5.78;2.30;;;;;;;30.68;33.85;100067.16;5063774;28;20199;-67
2022/06/15 10:51:11;;;;;;;6.65;2.15;;;;;;;30.56;35.72;100058.50;5063735;28;20028;-67
2022/06/15 10:53:47;;;;;;;3.15;2.05;;;;;;;30.43;35.13;100062.72;5063184;28;20063;-67
2022/06/15 11:02:37;;;;;;;3.67;2.08;;;;;;;30.16;37.19;100057.69;5062737;28;20036;-67
2022/06/15 11:05:10;;;;;;;4.25;2.10;;;;;;;30.05;36.02;100058.03;5063602;28;20228;-67
2022/06/15 11:07:42;;;;;;;3.53;1.83;;;;;;;29.81;35.66;100060.59;5062971;28;20032;-67
2022/06/15 11:10:13;;;;;;;3.75;2.00;;;;;;;29.68;36.72;100047.56;5061938;28;20029;-67
2022/06/15 11:12:51;;;;;;;3.83;2.50;;;;;;;29.60;36.91;100059.06;5062424;28;20043;-67
2022/06/15 11:15:16;;;;;;;5.85;2.00;;;;;;;29.45;35.40;100051.78;5056186;28;20052;-67
2022/06/15 11:18:06;;;;;;;4.10;2.47;;;;;;;29.52;36.62;100052.28;5063180;28;20033;-67
2022/06/15 11:20:43;;;;;;;3.97;2.50;;;;;;;29.73;35.77;100053.00;5063311;28;20348;-67
2022/06/15 11:23:28;;;;;;;6.80;2.22;;;;;;;29.68;35.81;100051.13;5062939;28;20037;-67
2022/06/15 11:29:04;;;;;;;5.57;2.33;;;;;;;29.92;35.06;100039.53;5062196;28;20033;-67
2022/06/15 11:31:31;;;;;;;5.68;2.67;;;;;;;29.96;35.46;100046.06;5061599;28;20056;-67
2022/06/15 11:34:06;;;;;;;5.63;2.20;;;;;;;29.98;35.67;100047.41;5063093;28;20025;-67
2022/06/15 11:36:59;;;;;;;5.50;2.30;;;;;;;29.90;34.28;100047.19;5063046;28;20245;-67
2022/06/15 11:39:36;;;;;;;3.47;2.08;;;;;;;29.80;35.48;100046.16;5062615;28;20041;-67
2022/06/15 11:42:02;;;;;;;2.53;1.77;;;;;;;29.57;34.72;100049.53;5061617;28;20032;-67
2022/06/15 11:44:31;;;;;;;4.78;2.10;;;;;;;29.53;34.83;100043.00;5062667;28;20222;-67
2022/06/15 11:47:25;;;;;;;2.78;2.05;;;;;;;29.62;34.62;100049.50;5061711;28;20036;-67
2022/06/15 11:50:24;;;;;;;4.68;2.25;;;;;;;29.34;35.81;100048.25;5061299;28;20364;-67
2022/06/15 11:53:11;;;;;;;5.45;2.10;;;;;;;28.78;36.43;100058.41;5054099;28;20041;-67
2022/06/15 11:55:45;;;;;;;3.38;2.45;;;;;;;28.69;35.57;100046.44;5062456;28;20147;-67
2022/06/15 11:58:21;;;;;;;8.55;2.17;;;;;;;28.28;37.00;100049.16;5062240;28;20037;-67